createdAt,value
2018-06-23T00:01:21.713Z,99673.65
2018-06-23T00:03:49.799Z,99666.89
2018-06-23T00:06:17.891Z,99670.19
2018-06-23T00:08:45.983Z,99666.17
2018-06-23T00:11:14.194Z,99667.59
2018-06-23T00:13:42.384Z,99671.98
2018-06-23T00:16:11.088Z,99672.91
2018-06-23T00:18:39.461Z,99672.55
2018-06-23T00:21:07.572Z,99672.55
2018-06-23T00:23:35.749Z,99671.80
2018-06-23T00:26:09.280Z,99667.11
2018-06-23T00:28:38.037Z,99661.57
2018-06-23T00:31:06.454Z,99670.36
2018-06-23T00:33:34.648Z,99665.77
2018-06-23T00:36:02.867Z,99660.91
2018-06-23T00:38:30.952Z,99661.30
2018-06-23T00:40:59.033Z,99655.66
2018-06-23T00:43:27.437Z,99656.05
2018-06-23T00:45:55.505Z,99649.39
2018-06-23T00:48:23.695Z,99649.41
2018-06-23T00:50:51.787Z,99645.27
2018-06-23T00:53:19.903Z,99644.67
2018-06-23T00:55:48.061Z,99648.61
2018-06-23T00:58:16.809Z,99651.14
2018-06-23T01:00:45.339Z,99639.53
2018-06-23T01:03:13.508Z,99642.61
2018-06-23T01:05:41.832Z,99647.70
2018-06-23T01:08:09.916Z,99643.83
2018-06-23T01:10:38.152Z,99647.76
2018-06-23T01:13:06.344Z,99640.64
2018-06-23T01:15:34.460Z,99641.04
2018-06-23T01:18:02.640Z,99641.60
2018-06-23T01:20:30.720Z,99629.99
2018-06-23T01:22:58.790Z,99634.68
2018-06-23T01:25:26.964Z,99639.73
2018-06-23T01:27:56.535Z,99639.44
2018-06-23T01:30:24.696Z,99638.58
2018-06-23T01:32:52.799Z,99647.59
2018-06-23T01:35:20.965Z,99639.98
2018-06-23T01:37:49.295Z,99644.73
2018-06-23T01:40:17.376Z,99640.44
2018-06-23T01:42:45.595Z,99641.95
2018-06-23T01:45:13.664Z,99644.18
2018-06-23T01:47:41.781Z,99642.66
2018-06-23T01:50:09.920Z,99641.50
2018-06-23T01:52:39.040Z,99637.31
2018-06-23T01:55:07.384Z,99647.45
2018-06-23T01:57:35.505Z,99645.98
2018-06-23T02:00:03.576Z,99643.66
2018-06-23T02:02:31.796Z,99644.58
2018-06-23T02:04:59.932Z,99643.06
2018-06-23T02:07:28.076Z,99641.59
2018-06-23T02:09:56.160Z,99640.44
2018-06-23T02:12:24.344Z,99635.70
2018-06-23T02:14:57.792Z,99638.22
2018-06-23T02:17:31.380Z,99639.99
2018-06-23T02:20:04.839Z,99641.20
2018-06-23T02:22:38.203Z,99643.82
2018-06-23T02:25:11.528Z,99641.74
2018-06-23T02:27:44.924Z,99642.00
2018-06-23T02:30:18.624Z,99633.73
2018-06-23T02:32:50.949Z,99634.93
2018-06-23T02:35:19.300Z,99641.27
2018-06-23T02:37:47.384Z,99646.84
2018-06-23T02:40:15.594Z,99644.11
2018-06-23T02:42:43.797Z,99653.76
2018-06-23T02:45:12.566Z,99652.22
2018-06-23T02:47:40.764Z,99652.55
2018-06-23T02:50:08.852Z,99646.33
2018-06-23T02:52:36.991Z,99647.84
2018-06-23T02:55:05.235Z,99659.05
2018-06-23T02:57:33.348Z,99661.59
2018-06-23T03:00:01.657Z,99658.53
2018-06-23T03:02:29.657Z,99657.44
2018-06-23T03:04:57.716Z,99661.15
2018-06-23T03:07:25.899Z,99666.12
2018-06-23T03:09:56.033Z,99670.95
2018-06-23T03:12:24.164Z,99679.00
2018-06-23T03:14:52.292Z,99681.31
2018-06-23T03:17:20.468Z,99679.24
2018-06-23T03:19:49.905Z,99674.37
2018-06-23T03:22:18.276Z,99678.60
2018-06-23T03:24:46.814Z,99671.84
2018-06-23T03:27:15.155Z,99674.88
2018-06-23T03:29:44.039Z,99677.36
2018-06-23T03:32:12.531Z,99676.11
2018-06-23T03:34:40.668Z,99670.53
2018-06-23T03:37:08.746Z,99670.63
2018-06-23T03:39:37.113Z,99670.19
2018-06-23T03:42:05.396Z,99672.77
2018-06-23T03:44:33.679Z,99669.59
2018-06-23T03:47:01.957Z,99663.17
2018-06-23T03:49:30.610Z,99664.91
2018-06-23T03:51:59.155Z,99665.34
2018-06-23T03:54:27.374Z,99669.17
2018-06-23T03:56:56.376Z,99660.25
2018-06-23T03:59:24.491Z,99659.06
2018-06-23T04:01:52.939Z,99662.80
2018-06-23T04:04:21.036Z,99665.23
2018-06-23T04:06:49.993Z,99662.88
2018-06-23T04:09:18.232Z,99670.67
2018-06-23T04:11:46.345Z,99679.02
2018-06-23T04:14:14.412Z,99671.41
2018-06-23T04:16:42.822Z,99680.78
2018-06-23T04:19:10.980Z,99683.12
2018-06-23T04:21:39.157Z,99677.53
2018-06-23T04:24:07.215Z,99676.30
2018-06-23T04:26:35.399Z,99682.24
2018-06-23T04:29:03.559Z,99682.13
2018-06-23T04:31:31.636Z,99680.64
2018-06-23T04:33:59.808Z,99683.00
2018-06-23T04:36:27.923Z,99682.38
2018-06-23T04:38:56.101Z,99690.22
2018-06-23T04:41:24.275Z,99688.98
2018-06-23T04:43:52.477Z,99696.13
2018-06-23T04:46:20.591Z,99691.81
2018-06-23T04:48:48.801Z,99692.47
2018-06-23T04:51:17.096Z,99690.77
2018-06-23T04:53:47.336Z,99689.25
2018-06-23T04:56:16.947Z,99681.99
2018-06-23T04:58:45.127Z,99688.80
2018-06-23T05:01:13.340Z,99691.99
2018-06-23T05:03:41.484Z,99698.48
2018-06-23T05:06:09.761Z,99703.20
2018-06-23T05:08:38.794Z,99701.86
2018-06-23T05:11:07.215Z,99701.28
2018-06-23T05:13:35.411Z,99693.25
2018-06-23T05:16:03.698Z,99701.50
2018-06-23T05:18:31.868Z,99690.50
2018-06-23T05:21:00.191Z,99685.23
2018-06-23T05:23:28.316Z,99677.80
2018-06-23T05:25:56.423Z,99682.66
2018-06-23T05:28:24.576Z,99687.64
2018-06-23T05:30:52.840Z,99685.12
2018-06-23T05:33:22.253Z,99683.45
2018-06-23T05:35:50.520Z,99678.73
2018-06-23T05:38:18.649Z,99678.03
2018-06-23T05:40:47.051Z,99676.88
2018-06-23T05:43:15.175Z,99673.44
2018-06-23T05:45:44.012Z,99673.14
2018-06-23T05:48:12.439Z,99665.34
2018-06-23T05:50:40.900Z,99659.66
2018-06-23T05:53:09.958Z,99662.27
2018-06-23T05:55:38.093Z,99657.98
2018-06-23T05:58:06.332Z,99668.44
2018-06-23T06:00:35.397Z,99668.32
2018-06-23T06:03:04.335Z,99663.83
2018-06-23T06:05:32.589Z,99667.01
2018-06-23T06:08:00.796Z,99669.68
2018-06-23T06:10:28.998Z,99671.28
2018-06-23T06:12:57.256Z,99678.21
2018-06-23T06:15:25.984Z,99676.69
2018-06-23T06:17:54.188Z,99680.87
2018-06-23T06:20:22.292Z,99670.62
2018-06-23T06:22:50.607Z,99672.31
2018-06-23T06:25:20.315Z,99683.09
2018-06-23T06:27:48.559Z,99678.50
2018-06-23T06:30:17.022Z,99679.34
2018-06-23T06:32:45.832Z,99684.36
2018-06-23T06:35:14.204Z,99687.31
2018-06-23T06:37:42.312Z,99687.34
2018-06-23T06:40:10.448Z,99687.92
2018-06-23T06:42:40.096Z,99689.00
2018-06-23T06:45:08.447Z,99684.84
2018-06-23T06:47:36.750Z,99681.97
2018-06-23T06:50:05.674Z,99684.02
2018-06-23T06:52:33.923Z,99680.98
2018-06-23T06:55:02.046Z,99680.66
2018-06-23T06:57:30.122Z,99676.70
2018-06-23T06:59:58.227Z,99679.66
2018-06-23T07:02:26.591Z,99677.90
2018-06-23T07:04:54.856Z,99685.51
2018-06-23T07:07:23.045Z,99679.59
2018-06-23T07:09:51.207Z,99683.13
2018-06-23T07:12:19.327Z,99680.69
2018-06-23T07:14:47.667Z,99684.17
2018-06-23T07:17:15.819Z,99681.53
2018-06-23T07:19:44.188Z,99680.02
2018-06-23T07:22:12.604Z,99677.97
2018-06-23T07:24:40.713Z,99683.05
2018-06-23T07:27:08.808Z,99684.03
2018-06-23T07:29:38.553Z,99683.45
2018-06-23T07:32:06.765Z,99691.04
2018-06-23T07:34:35.003Z,99690.25
2018-06-23T07:37:03.140Z,99689.66
2018-06-23T07:39:34.077Z,99678.97
2018-06-23T07:42:03.338Z,99668.73
2018-06-23T07:44:31.583Z,99671.76
2018-06-23T07:46:59.825Z,99668.46
2018-06-23T07:49:37.968Z,99670.20
2018-06-23T07:52:07.892Z,99666.96
2018-06-23T07:54:38.897Z,99667.54
2018-06-23T07:57:08.169Z,99670.69
2018-06-23T07:59:38.188Z,99662.73
2018-06-23T08:02:07.560Z,99665.73
2018-06-23T08:04:37.344Z,99666.56
2018-06-23T08:07:07.006Z,99659.84
2018-06-23T08:09:37.149Z,99650.19
2018-06-23T08:12:06.596Z,99647.97
2018-06-23T08:14:36.085Z,99651.57
2018-06-23T08:17:04.493Z,99649.31
2018-06-23T08:19:33.801Z,99656.02
2018-06-23T08:22:03.396Z,99652.45
2018-06-23T08:24:32.349Z,99656.07
2018-06-23T08:27:05.027Z,99647.14
2018-06-23T08:29:33.533Z,99650.36
2018-06-23T08:32:02.643Z,99654.89
2018-06-23T08:34:31.593Z,99657.14
2018-06-23T08:37:01.387Z,99651.50
2018-06-23T08:39:30.709Z,99650.78
2018-06-23T08:42:01.792Z,99644.84
2018-06-23T08:44:31.228Z,99640.71
2018-06-23T08:47:00.228Z,99639.23
2018-06-23T08:49:29.756Z,99640.22
2018-06-23T08:51:58.589Z,99643.53
2018-06-23T08:54:27.317Z,99638.91
2018-06-23T08:56:56.027Z,99638.81
2018-06-23T08:59:24.647Z,99634.83
2018-06-23T09:01:55.033Z,99640.42
2018-06-23T09:04:24.009Z,99634.13
2018-06-23T09:06:53.191Z,99634.91
2018-06-23T09:09:22.129Z,99637.27
2018-06-23T09:11:50.482Z,99634.06
2018-06-23T09:14:19.043Z,99634.20
2018-06-23T09:16:47.566Z,99627.28
2018-06-23T09:19:15.814Z,99628.12
2018-06-23T09:21:44.191Z,99633.17
2018-06-23T09:24:14.412Z,99631.88
2018-06-23T09:26:42.612Z,99629.17
2018-06-23T09:29:10.786Z,99623.23
2018-06-23T09:31:39.102Z,99628.19
2018-06-23T09:34:07.656Z,99632.94
2018-06-23T09:36:36.044Z,99631.19
2018-06-23T09:39:07.367Z,99638.83
2018-06-23T09:41:36.625Z,99635.13
2018-06-23T09:44:05.352Z,99631.66
2018-06-23T09:46:38.080Z,99635.18
2018-06-23T09:49:07.104Z,99633.88
2018-06-23T09:51:36.081Z,99630.38
2018-06-23T09:54:05.594Z,99622.04
2018-06-23T09:56:34.014Z,99633.19
2018-06-23T09:59:02.793Z,99634.00
2018-06-23T10:01:31.141Z,99634.94
2018-06-23T10:03:59.340Z,99643.08
2018-06-23T10:06:27.861Z,99642.68
2018-06-23T10:08:56.022Z,99645.17
2018-06-23T10:11:24.864Z,99643.91
2018-06-23T10:13:54.129Z,99641.36
2018-06-23T10:16:23.055Z,99638.59
2018-06-23T10:18:51.302Z,99634.48
2018-06-23T10:21:19.487Z,99638.59
2018-06-23T10:23:47.928Z,99648.10
2018-06-23T10:26:16.550Z,99634.42
2018-06-23T10:28:44.770Z,99631.25
2018-06-23T10:31:13.357Z,99637.63
2018-06-23T10:33:41.718Z,99639.25
2018-06-23T10:36:10.380Z,99635.33
2018-06-23T10:38:38.626Z,99638.31
2018-06-23T10:41:07.581Z,99643.02
2018-06-23T10:43:35.810Z,99636.60
2018-06-23T10:46:05.025Z,99632.46
2018-06-23T10:48:35.262Z,99640.16
2018-06-23T10:51:03.511Z,99647.15
2018-06-23T10:53:33.329Z,99640.23
2018-06-23T10:56:01.676Z,99639.84
2018-06-23T10:58:30.037Z,99630.53
2018-06-23T11:00:58.377Z,99614.45
2018-06-23T11:03:27.311Z,99620.42
2018-06-23T11:05:55.951Z,99614.53
2018-06-23T11:08:24.312Z,99615.16
2018-06-23T11:10:54.523Z,99607.70
2018-06-23T11:13:23.762Z,99601.47
2018-06-23T11:15:52.194Z,99596.59
2018-06-23T11:18:20.502Z,99590.20
2018-06-23T11:20:49.300Z,99590.69
2018-06-23T11:23:17.967Z,99589.40
2018-06-23T11:25:46.692Z,99585.64
2018-06-23T11:28:15.038Z,99582.09
2018-06-23T11:30:43.394Z,99578.78
2018-06-23T11:33:11.600Z,99576.09
2018-06-23T11:35:40.458Z,99580.94
2018-06-23T11:38:08.780Z,99575.36
2018-06-23T11:40:37.136Z,99572.79
2018-06-23T11:43:05.411Z,99576.31
2018-06-23T11:45:34.620Z,99574.59
2018-06-23T11:48:04.064Z,99566.83
2018-06-23T11:50:32.639Z,99566.93
2018-06-23T11:53:01.143Z,99565.83
2018-06-23T11:55:29.821Z,99565.08
2018-06-23T11:57:58.259Z,99559.62
2018-06-23T12:00:26.777Z,99565.30
2018-06-23T12:02:55.514Z,99559.58
2018-06-23T12:05:23.707Z,99561.56
2018-06-23T12:07:52.751Z,99554.62
2018-06-23T12:10:22.834Z,99555.03
2018-06-23T12:12:51.464Z,99548.66
2018-06-23T12:15:19.633Z,99547.61
2018-06-23T12:17:48.529Z,99534.98
2018-06-23T12:20:18.189Z,99534.03
2018-06-23T12:22:48.162Z,99538.39
2018-06-23T12:25:18.200Z,99532.71
2018-06-23T12:27:48.166Z,99529.75
2018-06-23T12:30:16.684Z,99527.83
2018-06-23T12:32:46.112Z,99531.95
2018-06-23T12:35:14.450Z,99524.73
2018-06-23T12:37:43.322Z,99514.95
2018-06-23T12:40:14.404Z,99517.45
2018-06-23T12:42:42.900Z,99518.95
2018-06-23T12:45:11.405Z,99506.59
2018-06-23T12:47:40.422Z,99506.27
2018-06-23T12:50:09.238Z,99497.59
2018-06-23T12:52:38.285Z,99498.26
2018-06-23T12:55:07.067Z,99487.56
2018-06-23T12:57:35.629Z,99493.90
2018-06-23T13:00:04.762Z,99482.87
2018-06-23T13:02:33.985Z,99481.06
2018-06-23T13:05:02.768Z,99488.56
2018-06-23T13:07:31.536Z,99481.71
2018-06-23T13:10:00.664Z,99471.20
2018-06-23T13:12:29.481Z,99473.88
2018-06-23T13:14:57.889Z,99470.85
2018-06-23T13:17:26.886Z,99471.20
2018-06-23T13:19:56.146Z,99470.36
2018-06-23T13:22:24.701Z,99467.86
2018-06-23T13:24:53.747Z,99468.88
2018-06-23T13:27:22.609Z,99464.84
2018-06-23T13:29:51.112Z,99462.03
2018-06-23T13:32:21.061Z,99454.33
2018-06-23T13:34:50.706Z,99449.51
2018-06-23T13:37:19.222Z,99453.12
2018-06-23T13:39:47.686Z,99450.56
2018-06-23T13:42:16.064Z,99446.42
2018-06-23T13:44:45.042Z,99452.16
2018-06-23T13:47:13.409Z,99453.83
2018-06-23T13:49:41.538Z,99449.48
2018-06-23T13:52:09.906Z,99441.95
2018-06-23T13:54:39.041Z,99443.74
2018-06-23T13:57:07.462Z,99447.45
2018-06-23T13:59:35.836Z,99445.16
2018-06-23T14:02:04.513Z,99444.30
2018-06-23T14:04:33.172Z,99442.16
2018-06-23T14:07:02.464Z,99450.45
2018-06-23T14:09:30.854Z,99454.50
2018-06-23T14:11:59.036Z,99447.13
2018-06-23T14:14:27.396Z,99448.67
2018-06-23T14:16:57.244Z,99451.80
2018-06-23T14:19:25.734Z,99450.48
2018-06-23T14:21:54.184Z,99449.51
2018-06-23T14:24:25.225Z,99453.97
2018-06-23T14:26:56.155Z,99441.31
2018-06-23T14:29:25.311Z,99442.63
2018-06-23T14:31:53.969Z,99437.38
2018-06-23T14:34:23.418Z,99433.81
2018-06-23T14:36:52.196Z,99437.81
2018-06-23T14:39:20.676Z,99440.05
2018-06-23T14:41:49.477Z,99439.38
2018-06-23T14:44:18.778Z,99443.39
2018-06-23T14:46:47.189Z,99434.95
2018-06-23T14:49:15.508Z,99437.80
2018-06-23T14:51:44.405Z,99430.00
2018-06-23T14:54:13.790Z,99431.86
2018-06-23T14:56:44.872Z,99425.85
2018-06-23T14:59:14.224Z,99426.28
2018-06-23T15:01:46.149Z,99424.79
2018-06-23T15:04:16.246Z,99419.19
2018-06-23T15:07:02.730Z,99422.34
2018-06-23T15:09:42.076Z,99427.91
2018-06-23T15:12:21.393Z,99428.56
2018-06-23T15:14:49.885Z,99419.59
2018-06-23T15:17:20.294Z,99416.72
2018-06-23T15:19:49.184Z,99417.67
2018-06-23T15:22:20.424Z,99412.13
2018-06-23T15:24:49.260Z,99405.67
2018-06-23T15:27:18.373Z,99409.38
2018-06-23T15:29:47.672Z,99402.77
2018-06-23T15:32:17.854Z,99404.89
2018-06-23T15:34:49.194Z,99397.06
2018-06-23T15:37:19.455Z,99393.73
2018-06-23T15:39:49.422Z,99393.02
2018-06-23T15:42:18.582Z,99394.40
2018-06-23T15:44:47.650Z,99390.28
2018-06-23T15:47:18.225Z,99388.72
2018-06-23T15:49:47.494Z,99395.62
2018-06-23T15:52:17.402Z,99391.67
2018-06-23T15:54:46.621Z,99402.01
2018-06-23T15:57:16.910Z,99386.22
2018-06-23T15:59:46.726Z,99388.52
2018-06-23T16:02:15.740Z,99379.46
2018-06-23T16:04:45.092Z,99390.03
2018-06-23T16:07:14.670Z,99373.56
2018-06-23T16:09:44.351Z,99387.59
2018-06-23T16:12:14.903Z,99377.94
2018-06-23T16:14:44.745Z,99379.00
2018-06-23T16:17:14.462Z,99378.38
2018-06-23T16:19:43.520Z,99379.56
2018-06-23T16:22:12.901Z,99380.76
2018-06-23T16:24:41.867Z,99379.57
2018-06-23T16:27:17.213Z,99381.40
2018-06-23T16:29:46.431Z,99384.56
2018-06-23T16:32:15.980Z,99373.56
2018-06-23T16:34:46.576Z,99380.44
2018-06-23T16:37:15.847Z,99381.25
2018-06-23T16:39:44.880Z,99374.73
2018-06-23T16:42:14.922Z,99373.72
2018-06-23T16:44:43.475Z,99375.71
2018-06-23T16:47:12.340Z,99372.09
2018-06-23T16:49:42.067Z,99371.72
2018-06-23T16:52:11.894Z,99368.10
2018-06-23T16:54:41.485Z,99362.57
2018-06-23T16:57:17.143Z,99365.70
2018-06-23T16:59:46.154Z,99380.22
2018-06-23T17:02:14.882Z,99375.02
2018-06-23T17:04:43.563Z,99378.80
2018-06-23T17:07:13.321Z,99376.98
2018-06-23T17:09:41.804Z,99375.69
2018-06-23T17:12:11.153Z,99378.63
2018-06-23T17:20:30.491Z,99379.66
2018-06-23T17:23:00.499Z,99383.13
2018-06-23T17:26:02.246Z,99381.45
2018-06-23T17:28:35.846Z,99382.55
2018-06-23T17:31:04.457Z,99384.65
2018-06-23T17:33:33.772Z,99388.72
2018-06-23T17:42:22.789Z,99398.14
2018-06-23T17:47:47.521Z,99396.09
2018-06-23T17:50:16.000Z,99397.42
2018-06-23T17:52:46.328Z,99397.78
2018-06-23T17:55:15.611Z,99400.73
2018-06-23T18:03:41.753Z,99404.72
2018-06-23T18:06:23.809Z,99402.95
2018-06-23T18:11:44.404Z,99411.22
2018-06-23T18:14:19.309Z,99408.52
2018-06-23T18:16:50.509Z,99415.21
2018-06-23T18:19:42.125Z,99415.21
2018-06-23T18:22:11.645Z,99414.46
2018-06-23T18:24:43.933Z,99412.91
2018-06-23T18:27:12.680Z,99409.03
2018-06-23T18:29:42.076Z,99411.78
2018-06-23T18:32:10.805Z,99410.25
2018-06-23T18:34:49.996Z,99412.32
2018-06-23T18:37:25.292Z,99406.44
2018-06-23T18:39:54.137Z,99410.05
2018-06-23T18:42:23.378Z,99417.98
2018-06-23T18:44:58.452Z,99408.98
2018-06-23T18:47:27.025Z,99411.96
2018-06-23T18:49:55.518Z,99410.58
2018-06-23T18:52:26.225Z,99408.94
2018-06-23T18:54:59.828Z,99417.38
2018-06-23T18:57:31.349Z,99415.41
2018-06-23T19:00:01.866Z,99412.70
2018-06-23T19:02:38.280Z,99413.63
2018-06-23T19:05:08.033Z,99416.00
2018-06-23T19:07:36.812Z,99420.67
2018-06-23T19:10:05.551Z,99423.25
2018-06-23T19:12:45.121Z,99427.36
2018-06-23T19:15:13.689Z,99426.34
2018-06-23T19:20:35.481Z,99434.00
2018-06-23T19:23:10.486Z,99426.12
2018-06-23T19:25:39.341Z,99431.23
2018-06-23T19:28:16.675Z,99432.22
2018-06-23T19:30:45.681Z,99437.66
2018-06-23T19:33:14.880Z,99439.64
2018-06-23T19:35:43.425Z,99434.24
2018-06-23T19:38:12.829Z,99443.27
2018-06-23T19:40:59.146Z,99442.99
2018-06-23T19:43:27.676Z,99439.36
2018-06-23T19:45:58.224Z,99440.12
2018-06-23T19:48:31.449Z,99441.02
2018-06-23T19:58:05.723Z,99450.32
2018-06-23T20:03:42.240Z,99451.17
2018-06-23T20:06:14.615Z,99453.78
2018-06-23T20:11:29.621Z,99460.13
2018-06-23T20:14:06.101Z,99462.22
2018-06-23T20:16:38.223Z,99460.67
2018-06-23T20:19:14.232Z,99455.52
2018-06-23T20:21:43.599Z,99457.16
2018-06-23T20:24:13.104Z,99459.93
2018-06-23T20:26:51.017Z,99459.51
2018-06-23T20:29:21.228Z,99455.96
2018-06-23T20:31:49.714Z,99463.65
2018-06-23T20:34:18.495Z,99473.20
2018-06-23T20:36:47.211Z,99464.55
2018-06-23T20:39:20.944Z,99464.83
2018-06-23T20:47:44.804Z,99463.93
2018-06-23T20:50:15.756Z,99461.77
2018-06-23T20:52:44.568Z,99463.93
2018-06-23T20:55:31.320Z,99457.42
2018-06-23T20:58:11.969Z,99459.83
2018-06-23T21:00:57.057Z,99461.77
2018-06-23T21:03:27.276Z,99461.92
2018-06-23T21:09:01.340Z,99457.75
2018-06-23T21:11:43.265Z,99461.41
2018-06-23T21:14:25.461Z,99455.11
2018-06-23T21:17:02.066Z,99458.72
2018-06-23T21:19:31.156Z,99454.11
2018-06-23T21:22:13.142Z,99453.30
2018-06-23T21:24:42.148Z,99450.09
2018-06-23T21:27:12.841Z,99455.73
2018-06-23T21:29:41.376Z,99450.06
2018-06-23T21:32:17.453Z,99451.61
2018-06-23T21:34:47.113Z,99447.59
2018-06-23T21:40:08.759Z,99445.92
2018-06-23T21:42:37.737Z,99449.39
2018-06-23T21:45:06.318Z,99444.16
2018-06-23T21:47:35.267Z,99450.00
2018-06-23T21:55:05.272Z,99448.67
2018-06-23T21:57:34.720Z,99448.08
2018-06-23T22:02:57.640Z,99444.55
2018-06-23T22:05:34.460Z,99442.42
2018-06-23T22:08:03.248Z,99438.54
2018-06-23T22:10:32.009Z,99444.31
2018-06-23T22:13:02.678Z,99445.58
2018-06-23T22:15:31.467Z,99445.69
2018-06-23T22:18:00.039Z,99442.81
2018-06-23T22:20:29.445Z,99440.20
2018-06-23T22:25:38.609Z,99438.93
2018-06-23T22:28:07.441Z,99446.06
2018-06-23T22:30:44.435Z,99443.70
2018-06-23T22:33:13.876Z,99438.28
2018-06-23T22:37:27.608Z,99440.51
2018-06-23T22:43:01.745Z,99431.94
2018-06-23T22:45:33.345Z,99431.34
2018-06-23T22:48:08.644Z,99438.59
2018-06-23T22:50:47.204Z,99437.87
2018-06-23T22:53:16.261Z,99432.23
2018-06-23T22:55:44.862Z,99436.16
2018-06-23T23:30:46.351Z,99429.32
2018-06-23T23:33:14.763Z,99422.56
2018-06-23T23:35:43.450Z,99423.73
2018-06-23T23:41:04.604Z,99423.28
2018-06-23T23:43:33.392Z,99425.12
2018-06-23T23:46:01.789Z,99423.05
2018-06-23T23:48:45.720Z,99416.84
2018-06-23T23:51:14.977Z,99415.38
2018-06-23T23:56:54.248Z,99407.22
2018-06-23T23:59:54.552Z,99407.22
